Terminal Aerodrome Forecast
Issued by NWS

Home | Current Version | Previous Version | Text Only | Print | Product List | Glossary On
Versions: 1 2 3 4 5 6 7 8 9 10 11 12 13 14
000
FTUS45 KRIW 292322
TAFLND
TAF
KLND 292322Z 3000/3024 VRB06KT P6SM FEW080 SCT250
     FM300100 VRB10G15KT P6SM VCSH SCT080 BKN200
     FM300500 24007KT P6SM SKC
     FM301700 02008KT P6SM FEW110
     FM301900 03010G20KT P6SM VCTS SCT090CB BKN110=

USA.gov is the U.S. government's official web portal to all federal, state and local government web resources and services.